sensor_id;sensor_type;location;lat;lon;timestamp;pressure;altitude;pressure_sealevel;temperature;humidity
7754;BME280;3921;42.266;23.122;2023-02-04T00:26:10;95257.25;;;1.65;71.07
7754;BME280;3921;42.266;23.122;2023-02-04T00:28:41;95098.03;;;0.64;71.99
7754;BME280;3921;42.266;23.122;2023-02-04T01:51:40;95107.44;;;1.12;67.82
7754;BME280;3921;42.266;23.122;2023-02-04T01:54:11;94997.38;;;0.60;67.84
7754;BME280;3921;42.266;23.122;2023-02-04T01:56:46;95165.31;;;1.50;68.40
7754;BME280;3921;42.266;23.122;2023-02-04T01:59:17;95014.97;;;0.72;68.80
7754;BME280;3921;42.266;23.122;2023-02-04T02:01:49;95201.47;;;1.79;69.18
7754;BME280;3921;42.266;23.122;2023-02-04T02:04:23;95524.56;;;3.95;69.07
7754;BME280;3921;42.266;23.122;2023-02-04T02:07:04;94981.59;;;0.55;69.37
7754;BME280;3921;42.266;23.122;2023-02-04T02:09:34;95070.22;;;1.07;69.14
7754;BME280;3921;42.266;23.122;2023-02-04T02:12:02;95167.75;;;1.84;69.95
7754;BME280;3921;42.266;23.122;2023-02-04T02:14:29;94984.50;;;0.73;69.58
7754;BME280;3921;42.266;23.122;2023-02-04T02:16:56;95379.53;;;3.07;70.03
7754;BME280;3921;42.266;23.122;2023-02-04T02:19:26;95494.59;;;3.86;70.57
7754;BME280;3921;42.266;23.122;2023-02-04T02:21:58;95481.44;;;3.92;70.36
7754;BME280;3921;42.266;23.122;2023-02-04T02:24:32;95154.56;;;1.85;70.30
7754;BME280;3921;42.266;23.122;2023-02-04T02:27:05;95492.94;;;3.88;70.96
7754;BME280;3921;42.266;23.122;2023-02-04T02:29:34;94941.13;;;0.16;70.88
7754;BME280;3921;42.266;23.122;2023-02-04T02:32:01;95496.22;;;3.84;71.22
7754;BME280;3921;42.266;23.122;2023-02-04T02:34:29;95056.78;;;0.97;71.17
7754;BME280;3921;42.266;23.122;2023-02-04T02:36:57;94992.56;;;0.64;71.75
7754;BME280;3921;42.266;23.122;2023-02-04T03:57:11;94919.59;;;0.82;75.80
7754;BME280;3921;42.266;23.122;2023-02-04T03:59:43;95245.66;;;3.16;75.58
7754;BME280;3921;42.266;23.122;2023-02-04T04:02:10;95364.88;;;4.07;75.20
7754;BME280;3921;42.266;23.122;2023-02-04T04:04:37;94871.03;;;0.85;75.39
7754;BME280;3921;42.266;23.122;2023-02-04T04:09:41;95129.47;;;2.52;75.27
7754;BME280;3921;42.266;23.122;2023-02-04T04:12:13;94847.66;;;0.71;75.49
7754;BME280;3921;42.266;23.122;2023-02-04T04:14:44;95377.34;;;4.10;75.91
7754;BME280;3921;42.266;23.122;2023-02-04T04:17:11;94788.91;;;0.59;75.79
7754;BME280;3921;42.266;23.122;2023-02-04T04:19:43;94844.66;;;0.86;75.74
7754;BME280;3921;42.266;23.122;2023-02-04T04:22:14;95339.31;;;4.16;75.73
7754;BME280;3921;42.266;23.122;2023-02-04T04:24:46;94751.91;;;0.24;75.42
7754;BME280;3921;42.266;23.122;2023-02-04T04:27:19;94809.91;;;0.79;74.95
7754;BME280;3921;42.266;23.122;2023-02-04T04:29:51;95282.09;;;3.63;75.15
7754;BME280;3921;42.266;23.122;2023-02-04T04:32:24;95021.59;;;2.28;75.14
7754;BME280;3921;42.266;23.122;2023-02-04T04:35:06;94788.34;;;0.72;74.87
7754;BME280;3921;42.266;23.122;2023-02-04T04:37:33;95187.22;;;3.35;75.51
7754;BME280;3921;42.266;23.122;2023-02-04T04:40:01;95142.06;;;3.06;75.02
7754;BME280;3921;42.266;23.122;2023-02-04T04:56:10;95350.28;;;4.27;74.50
7754;BME280;3921;42.266;23.122;2023-02-04T04:58:38;95330.19;;;4.15;74.53
7754;BME280;3921;42.266;23.122;2023-02-04T05:08:57;94843.50;;;1.09;74.90
7754;BME280;3921;42.266;23.122;2023-02-04T05:11:26;95374.22;;;4.20;74.82
7754;BME280;3921;42.266;23.122;2023-02-04T05:16:29;94838.75;;;0.79;75.63
7754;BME280;3921;42.266;23.122;2023-02-04T05:18:57;95292.13;;;3.67;75.22
7754;BME280;3921;42.266;23.122;2023-02-04T05:21:24;95362.63;;;4.21;75.51
7754;BME280;3921;42.266;23.122;2023-02-04T05:24:00;94842.06;;;0.79;75.72
7754;BME280;3921;42.266;23.122;2023-02-04T05:26:39;95207.91;;;3.33;75.78
7754;BME280;3921;42.266;23.122;2023-02-04T05:29:06;95364.34;;;4.25;76.54
7754;BME280;3921;42.266;23.122;2023-02-04T05:31:33;94881.38;;;1.06;76.69
7754;BME280;3921;42.266;23.122;2023-02-04T05:34:00;94937.56;;;1.51;76.68
7754;BME280;3921;42.266;23.122;2023-02-04T05:36:27;95233.72;;;3.44;76.72
7754;BME280;3921;42.266;23.122;2023-02-04T05:38:57;94862.09;;;0.92;76.96
7754;BME280;3921;42.266;23.122;2023-02-04T05:41:27;95381.72;;;4.23;77.40
7754;BME280;3921;42.266;23.122;2023-02-04T05:43:56;94850.22;;;0.75;77.08
7754;BME280;3921;42.266;23.122;2023-02-04T05:46:23;95355.66;;;4.02;nan
7754;BME280;3921;42.266;23.122;2023-02-04T05:48:50;94937.69;;;1.18;77.59
7754;BME280;3921;42.266;23.122;2023-02-04T05:51:17;95282.41;;;3.34;77.88
7754;BME280;3921;42.266;23.122;2023-02-04T05:53:44;94873.56;;;0.88;77.94
7754;BME280;3921;42.266;23.122;2023-02-04T05:56:13;94910.16;;;1.03;78.09
7754;BME280;3921;42.266;23.122;2023-02-04T06:01:24;95177.84;;;3.19;78.41
7754;BME280;3921;42.266;23.122;2023-02-04T06:03:53;94819.16;;;0.88;77.76
7754;BME280;3921;42.266;23.122;2023-02-04T06:06:27;94882.88;;;1.00;78.03
7754;BME280;3921;42.266;23.122;2023-02-04T06:09:09;94944.88;;;1.47;78.19
7754;BME280;3921;42.266;23.122;2023-02-04T06:17:10;95287.03;;;3.61;79.10
7754;BME280;3921;42.266;23.122;2023-02-04T06:22:17;94906.06;;;1.03;79.61
7754;BME280;3921;42.266;23.122;2023-02-04T06:24:53;94901.13;;;1.03;79.46
7754;BME280;3921;42.266;23.122;2023-02-04T06:27:20;95035.88;;;1.98;79.88
7754;BME280;3921;42.266;23.122;2023-02-04T06:29:48;94893.25;;;1.21;78.78
7754;BME280;3921;42.266;23.122;2023-02-04T06:35:06;94926.47;;;1.32;79.63
7754;BME280;3921;42.266;23.122;2023-02-04T06:37:33;95289.56;;;3.63;79.69
7754;BME280;3921;42.266;23.122;2023-02-04T06:40:00;94870.63;;;1.04;79.52
7754;BME280;3921;42.266;23.122;2023-02-04T06:42:27;95302.75;;;3.60;79.59
7754;BME280;3921;42.266;23.122;2023-02-04T06:44:55;95157.16;;;2.73;79.35
7754;BME280;3921;42.266;23.122;2023-02-04T06:47:22;95293.69;;;3.64;78.93
7754;BME280;3921;42.266;23.122;2023-02-04T06:49:51;94915.09;;;1.42;79.23
7754;BME280;3921;42.266;23.122;2023-02-04T06:52:21;94865.94;;;1.18;78.83
7754;BME280;3921;42.266;23.122;2023-02-04T06:54:54;94841.44;;;0.90;79.24
7754;BME280;3921;42.266;23.122;2023-02-04T07:00:11;94826.13;;;1.06;78.94
7754;BME280;3921;42.266;23.122;2023-02-04T07:02:40;95312.53;;;3.99;79.77
7754;BME280;3921;42.266;23.122;2023-02-04T07:05:09;95305.97;;;4.02;79.67
7754;BME280;3921;42.266;23.122;2023-02-04T07:07:39;94820.56;;;1.16;79.04
7754;BME280;3921;42.266;23.122;2023-02-04T07:10:08;94860.41;;;1.30;78.87
7754;BME280;3921;42.266;23.122;2023-02-04T07:13:02;95169.56;;;3.18;79.49
7754;BME280;3921;42.266;23.122;2023-02-04T07:27:45;94937.50;;;1.91;79.94
7754;BME280;3921;42.266;23.122;2023-02-04T07:30:14;95225.41;;;3.92;79.03
7754;BME280;3921;42.266;23.122;2023-02-04T07:32:43;95224.75;;;4.04;78.71
7754;BME280;3921;42.266;23.122;2023-02-04T07:35:22;94903.13;;;1.64;79.39
7754;BME280;3921;42.266;23.122;2023-02-04T07:37:50;94825.63;;;1.22;78.65
7754;BME280;3921;42.266;23.122;2023-02-04T07:40:17;94985.84;;;2.17;79.69
7754;BME280;3921;42.266;23.122;2023-02-04T07:42:52;94817.13;;;1.10;79.71
7754;BME280;3921;42.266;23.122;2023-02-04T07:45:20;95317.34;;;4.42;80.07
7754;BME280;3921;42.266;23.122;2023-02-04T07:47:48;94850.06;;;1.51;79.82
7754;BME280;3921;42.266;23.122;2023-02-04T07:50:15;94770.91;;;1.09;79.13
7754;BME280;3921;42.266;23.122;2023-02-04T07:52:44;95006.56;;;2.67;79.18
7754;BME280;3921;42.266;23.122;2023-02-04T07:55:20;95327.06;;;4.84;79.18
7754;BME280;3921;42.266;23.122;2023-02-04T07:57:50;95081.47;;;2.97;79.04
7754;BME280;3921;42.266;23.122;2023-02-04T08:00:17;95344.44;;;4.81;79.83
7754;BME280;3921;42.266;23.122;2023-02-04T08:02:45;94784.56;;;1.33;79.65
7754;BME280;3921;42.266;23.122;2023-02-04T08:05:17;95340.28;;;4.78;79.92
7754;BME280;3921;42.266;23.122;2023-02-04T08:07:44;95251.28;;;4.05;80.06
7754;BME280;3921;42.266;23.122;2023-02-04T08:10:11;94851.06;;;1.60;79.81
7754;BME280;3921;42.266;23.122;2023-02-04T08:12:41;95342.72;;;4.75;79.85
7754;BME280;3921;42.266;23.122;2023-02-04T08:15:09;95116.47;;;3.10;79.57
7754;BME280;3921;42.266;23.122;2023-02-04T08:17:37;94882.78;;;1.78;79.32
7754;BME280;3921;42.266;23.122;2023-02-04T08:20:05;94866.06;;;1.67;79.54
7754;BME280;3921;42.266;23.122;2023-02-04T08:22:36;94813.56;;;1.41;79.50
7754;BME280;3921;42.266;23.122;2023-02-04T08:25:03;95169.41;;;3.61;79.09
7754;BME280;3921;42.266;23.122;2023-02-04T08:27:30;94877.31;;;1.98;78.13
7754;BME280;3921;42.266;23.122;2023-02-04T08:29:57;95363.59;;;4.85;79.37
7754;BME280;3921;42.266;23.122;2023-02-04T08:32:29;95366.16;;;4.91;78.95
7754;BME280;3921;42.266;23.122;2023-02-04T08:35:01;95114.94;;;3.17;79.27
7754;BME280;3921;42.266;23.122;2023-02-04T08:37:28;95050.47;;;2.72;79.16
7754;BME280;3921;42.266;23.122;2023-02-04T08:39:55;95364.31;;;4.76;79.86
7754;BME280;3921;42.266;23.122;2023-02-04T08:42:22;94940.50;;;2.21;79.49
7754;BME280;3921;42.266;23.122;2023-02-04T08:44:49;94844.44;;;1.59;79.92
7754;BME280;3921;42.266;23.122;2023-02-04T08:47:16;94997.91;;;2.44;80.18
7754;BME280;3921;42.266;23.122;2023-02-04T08:49:45;95278.00;;;4.16;80.16
7754;BME280;3921;42.266;23.122;2023-02-04T08:52:12;95256.31;;;4.08;80.30
7754;BME280;3921;42.266;23.122;2023-02-04T08:54:39;95059.94;;;2.92;80.05
7754;BME280;3921;42.266;23.122;2023-02-04T08:57:06;95264.56;;;4.07;80.81
7754;BME280;3921;42.266;23.122;2023-02-04T08:59:33;95003.03;;;2.53;81.07
7754;BME280;3921;42.266;23.122;2023-02-04T09:02:00;95028.19;;;2.75;80.49
7754;BME280;3921;42.266;23.122;2023-02-04T09:04:27;94967.88;;;2.27;80.62
7754;BME280;3921;42.266;23.122;2023-02-04T09:06:56;95080.66;;;2.98;80.87
7754;BME280;3921;42.266;23.122;2023-02-04T09:09:23;95060.97;;;3.07;80.59
7754;BME280;3921;42.266;23.122;2023-02-04T09:11:50;95197.09;;;3.82;80.55
7754;BME280;3921;42.266;23.122;2023-02-04T09:14:17;95253.06;;;4.12;80.01
7754;BME280;3921;42.266;23.122;2023-02-04T09:16:44;95229.56;;;3.91;80.82
7754;BME280;3921;42.266;23.122;2023-02-04T09:19:13;95194.75;;;3.91;79.68
7754;BME280;3921;42.266;23.122;2023-02-04T09:21:41;95002.59;;;2.77;79.37
7754;BME280;3921;42.266;23.122;2023-02-04T09:24:09;94816.34;;;1.57;79.53
7754;BME280;3921;42.266;23.122;2023-02-04T09:26:36;94888.16;;;2.03;80.20
7754;BME280;3921;42.266;23.122;2023-02-04T09:29:03;95324.34;;;4.66;81.00
7754;BME280;3921;42.266;23.122;2023-02-04T09:31:30;94826.28;;;1.60;80.47
7754;BME280;3921;42.266;23.122;2023-02-04T09:33:57;95371.88;;;4.84;80.79
7754;BME280;3921;42.266;23.122;2023-02-04T09:36:25;95358.53;;;4.80;80.68
7754;BME280;3921;42.266;23.122;2023-02-04T09:38:55;95312.81;;;4.71;80.91
7754;BME280;3921;42.266;23.122;2023-02-04T09:41:23;94797.88;;;1.39;80.44
7754;BME280;3921;42.266;23.122;2023-02-04T09:43:50;95074.44;;;3.21;80.25
7754;BME280;3921;42.266;23.122;2023-02-04T09:46:20;95145.31;;;3.54;81.33
7754;BME280;3921;42.266;23.122;2023-02-04T09:48:47;95001.69;;;2.72;80.67
7754;BME280;3921;42.266;23.122;2023-02-04T09:51:17;95214.19;;;4.18;81.11
7754;BME280;3921;42.266;23.122;2023-02-04T09:53:45;95275.50;;;4.74;81.31
7754;BME280;3921;42.266;23.122;2023-02-04T09:56:13;94976.31;;;2.88;80.73
7754;BME280;3921;42.266;23.122;2023-02-04T09:58:43;95141.75;;;3.94;80.84
7754;BME280;3921;42.266;23.122;2023-02-04T10:01:13;95265.59;;;4.77;81.35
7754;BME280;3921;42.266;23.122;2023-02-04T10:03:45;95105.13;;;3.81;80.70
7754;BME280;3921;42.266;23.122;2023-02-04T10:06:13;94866.22;;;2.24;80.30
7754;BME280;3921;42.266;23.122;2023-02-04T10:08:41;95187.75;;;4.23;81.21
7754;BME280;3921;42.266;23.122;2023-02-04T10:11:10;95212.97;;;4.48;80.92
7754;BME280;3921;42.266;23.122;2023-02-04T10:13:38;95030.88;;;3.43;80.91
7754;BME280;3921;42.266;23.122;2023-02-04T10:16:13;94821.38;;;2.12;81.06
7754;BME280;3921;42.266;23.122;2023-02-04T10:18:41;95275.09;;;5.09;81.50
7754;BME280;3921;42.266;23.122;2023-02-04T10:21:15;95224.88;;;4.73;81.76
7754;BME280;3921;42.266;23.122;2023-02-04T10:23:45;94865.94;;;2.62;81.77
7754;BME280;3921;42.266;23.122;2023-02-04T10:26:14;94874.44;;;2.79;80.95
7754;BME280;3921;42.266;23.122;2023-02-04T10:28:42;95140.53;;;4.26;82.05
7754;BME280;3921;42.266;23.122;2023-02-04T10:31:32;95051.31;;;3.83;82.15
7754;BME280;3921;42.266;23.122;2023-02-04T10:34:11;95201.81;;;4.87;82.08
7754;BME280;3921;42.266;23.122;2023-02-04T10:36:40;95069.75;;;3.98;83.33
7754;BME280;3921;42.266;23.122;2023-02-04T10:39:12;95035.69;;;3.93;82.49
7754;BME280;3921;42.266;23.122;2023-02-04T10:41:44;94881.22;;;2.89;82.43
7754;BME280;3921;42.266;23.122;2023-02-04T10:44:13;95136.03;;;4.65;82.82
7754;BME280;3921;42.266;23.122;2023-02-04T10:46:42;95239.75;;;5.43;82.05
7754;BME280;3921;42.266;23.122;2023-02-04T10:49:20;94876.78;;;3.32;82.17
7754;BME280;3921;42.266;23.122;2023-02-04T10:51:48;95250.66;;;5.51;82.67
7754;BME280;3921;42.266;23.122;2023-02-04T10:54:18;94788.25;;;2.63;82.24
7754;BME280;3921;42.266;23.122;2023-02-04T10:57:06;94924.22;;;3.52;82.76
7754;BME280;3921;42.266;23.122;2023-02-04T10:59:35;95158.81;;;5.00;82.09
7754;BME280;3921;42.266;23.122;2023-02-04T11:04:57;94829.31;;;3.05;82.48
7754;BME280;3921;42.266;23.122;2023-02-04T11:07:24;95011.28;;;4.33;82.81
7754;BME280;3921;42.266;23.122;2023-02-04T11:09:52;95215.88;;;5.67;82.67
7754;BME280;3921;42.266;23.122;2023-02-04T11:12:20;94872.84;;;3.46;82.03
7754;BME280;3921;42.266;23.122;2023-02-04T11:14:54;95088.28;;;5.02;82.42
7754;BME280;3921;42.266;23.122;2023-02-04T11:17:29;94679.88;;;2.56;81.64
7754;BME280;3921;42.266;23.122;2023-02-04T11:19:57;95034.88;;;4.70;82.67
7754;BME280;3921;42.266;23.122;2023-02-04T11:22:40;94833.94;;;3.49;82.84
7754;BME280;3921;42.266;23.122;2023-02-04T11:25:30;95131.66;;;5.26;82.77
7754;BME280;3921;42.266;23.122;2023-02-04T11:27:58;94599.00;;;1.96;82.41
7754;BME280;3921;42.266;23.122;2023-02-04T11:30:31;95101.63;;;5.09;82.45
7754;BME280;3921;42.266;23.122;2023-02-04T11:33:05;95063.47;;;5.13;82.39
7754;BME280;3921;42.266;23.122;2023-02-04T11:35:32;95196.25;;;6.00;82.69
7754;BME280;3921;42.266;23.122;2023-02-04T11:37:59;95085.19;;;5.29;82.94
7754;BME280;3921;42.266;23.122;2023-02-04T11:40:29;95096.91;;;5.41;82.76
7754;BME280;3921;42.266;23.122;2023-02-04T11:42:58;94886.66;;;4.00;82.79
7754;BME280;3921;42.266;23.122;2023-02-04T11:45:28;94781.00;;;3.51;82.08
7754;BME280;3921;42.266;23.122;2023-02-04T11:47:57;94794.56;;;3.85;82.03
7754;BME280;3921;42.266;23.122;2023-02-04T11:50:28;94844.44;;;4.02;82.41
7754;BME280;3921;42.266;23.122;2023-02-04T11:52:57;94853.75;;;4.26;82.27
7754;BME280;3921;42.266;23.122;2023-02-04T11:55:27;94952.88;;;4.85;82.69
7754;BME280;3921;42.266;23.122;2023-02-04T11:57:55;95094.69;;;5.82;82.88
7754;BME280;3921;42.266;23.122;2023-02-04T12:00:24;95035.47;;;5.43;83.06
7754;BME280;3921;42.266;23.122;2023-02-04T12:02:55;94937.97;;;4.91;82.75
7754;BME280;3921;42.266;23.122;2023-02-04T12:05:36;94902.31;;;4.89;82.60
7754;BME280;3921;42.266;23.122;2023-02-04T12:08:10;95035.59;;;5.66;82.78
7754;BME280;3921;42.266;23.122;2023-02-04T12:10:37;95024.75;;;5.55;83.07
7754;BME280;3921;42.266;23.122;2023-02-04T12:13:12;95014.00;;;5.64;83.05
7754;BME280;3921;42.266;23.122;2023-02-04T12:15:51;94839.00;;;4.50;83.21
7754;BME280;3921;42.266;23.122;2023-02-04T12:18:20;94650.06;;;3.36;83.17
7754;BME280;3921;42.266;23.122;2023-02-04T12:20:48;95024.88;;;5.78;83.34
7754;BME280;3921;42.266;23.122;2023-02-04T12:23:15;95063.25;;;6.00;83.98
7754;BME280;3921;42.266;23.122;2023-02-04T12:25:42;95049.81;;;5.84;83.72
7754;BME280;3921;42.266;23.122;2023-02-04T12:28:09;94998.94;;;5.48;83.68
7754;BME280;3921;42.266;23.122;2023-02-04T12:30:36;95064.81;;;5.87;83.76
7754;BME280;3921;42.266;23.122;2023-02-04T12:33:04;95154.97;;;6.51;83.89
7754;BME280;3921;42.266;23.122;2023-02-04T12:35:32;95097.47;;;6.27;84.12
7754;BME280;3921;42.266;23.122;2023-02-04T12:38:08;94669.19;;;3.45;83.83
7754;BME280;3921;42.266;23.122;2023-02-04T12:41:09;95130.81;;;6.53;83.88
7754;BME280;3921;42.266;23.122;2023-02-04T12:43:36;94999.09;;;5.77;83.88
7754;BME280;3921;42.266;23.122;2023-02-04T12:46:03;94885.59;;;4.73;84.26
7754;BME280;3921;42.266;23.122;2023-02-04T12:48:31;94656.78;;;3.46;83.87
7754;BME280;3921;42.266;23.122;2023-02-04T12:50:58;94878.25;;;4.90;83.86
7754;BME280;3921;42.266;23.122;2023-02-04T12:53:29;94620.28;;;3.35;84.10
7754;BME280;3921;42.266;23.122;2023-02-04T12:55:56;95067.41;;;6.07;83.61
7754;BME280;3921;42.266;23.122;2023-02-04T12:58:24;94650.13;;;3.42;83.98
7754;BME280;3921;42.266;23.122;2023-02-04T13:00:59;95034.91;;;5.89;83.88
7754;BME280;3921;42.266;23.122;2023-02-04T13:03:26;94779.13;;;4.26;83.77
7754;BME280;3921;42.266;23.122;2023-02-04T13:05:53;95081.59;;;6.19;83.84
7754;BME280;3921;42.266;23.122;2023-02-04T13:08:20;94809.03;;;4.31;83.54
7754;BME280;3921;42.266;23.122;2023-02-04T13:10:53;94764.88;;;4.04;83.62
7754;BME280;3921;42.266;23.122;2023-02-04T13:13:22;94711.66;;;3.76;83.68
7754;BME280;3921;42.266;23.122;2023-02-04T13:15:49;95052.34;;;5.87;83.85
7754;BME280;3921;42.266;23.122;2023-02-04T13:18:16;95014.88;;;5.73;83.49
7754;BME280;3921;42.266;23.122;2023-02-04T13:20:44;94729.91;;;3.79;83.94
7754;BME280;3921;42.266;23.122;2023-02-04T13:23:11;94672.38;;;3.32;84.11
7754;BME280;3921;42.266;23.122;2023-02-04T13:25:38;94974.63;;;5.07;83.90
7754;BME280;3921;42.266;23.122;2023-02-04T13:28:07;95159.16;;;6.58;83.55
7754;BME280;3921;42.266;23.122;2023-02-04T13:30:34;94849.81;;;4.56;84.37
7754;BME280;3921;42.266;23.122;2023-02-04T13:33:01;95027.31;;;5.70;84.61
7754;BME280;3921;42.266;23.122;2023-02-04T13:35:29;94701.38;;;3.36;84.47
7754;BME280;3921;42.266;23.122;2023-02-04T13:37:57;94908.00;;;4.73;84.99
7754;BME280;3921;42.266;23.122;2023-02-04T13:40:24;94690.72;;;3.47;85.14
7754;BME280;3921;42.266;23.122;2023-02-04T13:42:51;94976.41;;;5.27;85.71
7754;BME280;3921;42.266;23.122;2023-02-04T13:45:19;95093.91;;;5.88;85.56
7754;BME280;3921;42.266;23.122;2023-02-04T13:47:46;94721.41;;;3.54;85.53
7754;BME280;3921;42.266;23.122;2023-02-04T13:50:13;94785.19;;;3.57;85.63
7754;BME280;3921;42.266;23.122;2023-02-04T13:52:40;95097.88;;;5.60;85.21
7754;BME280;3921;42.266;23.122;2023-02-04T13:55:08;95051.84;;;5.14;85.43
7754;BME280;3921;42.266;23.122;2023-02-04T13:57:43;95184.03;;;6.46;84.31
7754;BME280;3921;42.266;23.122;2023-02-04T14:00:11;95111.56;;;6.22;83.56
7754;BME280;3921;42.266;23.122;2023-02-04T14:02:40;95214.97;;;6.71;83.07
7754;BME280;3921;42.266;23.122;2023-02-04T14:05:07;95201.59;;;6.63;83.90
7754;BME280;3921;42.266;23.122;2023-02-04T14:07:36;95195.75;;;6.55;84.35
7754;BME280;3921;42.266;23.122;2023-02-04T14:10:04;95093.91;;;5.88;83.55
7754;BME280;3921;42.266;23.122;2023-02-04T14:12:31;95089.72;;;5.84;83.85
7754;BME280;3921;42.266;23.122;2023-02-04T14:15:01;95097.28;;;5.95;84.22
7754;BME280;3921;42.266;23.122;2023-02-04T14:17:31;95229.78;;;6.42;84.33
7754;BME280;3921;42.266;23.122;2023-02-04T14:20:11;94900.25;;;4.36;84.41
7754;BME280;3921;42.266;23.122;2023-02-04T14:22:38;95084.63;;;5.63;84.90
7754;BME280;3921;42.266;23.122;2023-02-04T14:25:05;94761.97;;;3.55;84.35
7754;BME280;3921;42.266;23.122;2023-02-04T14:27:34;94678.06;;;3.18;83.93
7754;BME280;3921;42.266;23.122;2023-02-04T14:30:05;95053.75;;;5.45;84.14
7754;BME280;3921;42.266;23.122;2023-02-04T14:32:32;95066.22;;;5.48;84.52
7754;BME280;3921;42.266;23.122;2023-02-04T14:35:14;94752.97;;;3.63;84.70
7754;BME280;3921;42.266;23.122;2023-02-04T14:37:42;95138.13;;;6.09;85.05
7754;BME280;3921;42.266;23.122;2023-02-04T14:40:11;95140.59;;;6.07;85.58
7754;BME280;3921;42.266;23.122;2023-02-04T14:42:38;95193.97;;;6.31;84.82
7754;BME280;3921;42.266;23.122;2023-02-04T14:45:06;95102.91;;;5.63;85.54
7754;BME280;3921;42.266;23.122;2023-02-04T14:47:37;95135.16;;;5.49;85.28
7754;BME280;3921;42.266;23.122;2023-02-04T14:50:06;94820.03;;;3.63;85.41
7754;BME280;3921;42.266;23.122;2023-02-04T14:52:43;94803.31;;;3.46;83.52
7754;BME280;3921;42.266;23.122;2023-02-04T14:55:11;95109.38;;;5.40;81.06
7754;BME280;3921;42.266;23.122;2023-02-04T14:57:38;94869.94;;;3.86;78.39
7754;BME280;3921;42.266;23.122;2023-02-04T15:00:06;95259.72;;;6.37;75.86
7754;BME280;3921;42.266;23.122;2023-02-04T15:02:33;95120.25;;;5.51;75.84
7754;BME280;3921;42.266;23.122;2023-02-04T15:05:00;95138.63;;;5.64;76.46
7754;BME280;3921;42.266;23.122;2023-02-04T15:07:27;95145.09;;;5.42;76.85
7754;BME280;3921;42.266;23.122;2023-02-04T15:09:56;94736.41;;;2.83;76.46
7754;BME280;3921;42.266;23.122;2023-02-04T15:12:23;95031.25;;;4.40;77.13
7754;BME280;3921;42.266;23.122;2023-02-04T15:14:49;95291.97;;;6.18;76.48
7754;BME280;3921;42.266;23.122;2023-02-04T15:17:16;95244.22;;;5.75;77.36
7754;BME280;3921;42.266;23.122;2023-02-04T15:19:44;95201.50;;;5.35;77.81
7754;BME280;3921;42.266;23.122;2023-02-04T15:22:11;94956.31;;;4.07;77.18
7754;BME280;3921;42.266;23.122;2023-02-04T15:24:58;95313.41;;;5.94;77.79
7754;BME280;3921;42.266;23.122;2023-02-04T15:27:25;95326.63;;;5.90;78.59
7754;BME280;3921;42.266;23.122;2023-02-04T15:29:52;95242.84;;;5.21;78.62
7754;BME280;3921;42.266;23.122;2023-02-04T15:32:19;94840.28;;;2.58;79.10
7754;BME280;3921;42.266;23.122;2023-02-04T15:34:46;95098.16;;;4.17;78.79
7754;BME280;3921;42.266;23.122;2023-02-04T15:37:13;94845.19;;;2.57;79.43
7754;BME280;3921;42.266;23.122;2023-02-04T15:40:00;95332.97;;;5.60;79.67
7754;BME280;3921;42.266;23.122;2023-02-04T15:45:15;95300.13;;;5.19;80.71
7754;BME280;3921;42.266;23.122;2023-02-04T15:47:42;95374.25;;;5.39;81.46
7754;BME280;3921;42.266;23.122;2023-02-04T15:50:09;95023.16;;;3.23;81.60
7754;BME280;3921;42.266;23.122;2023-02-04T15:52:39;95080.91;;;3.66;81.34
7754;BME280;3921;42.266;23.122;2023-02-04T15:55:08;95020.75;;;3.28;80.67
7754;BME280;3921;42.266;23.122;2023-02-04T15:57:34;94926.19;;;2.55;81.02
7754;BME280;3921;42.266;23.122;2023-02-04T16:00:03;95082.38;;;3.55;80.62
7754;BME280;3921;42.266;23.122;2023-02-04T16:02:31;94862.81;;;2.19;80.83
7754;BME280;3921;42.266;23.122;2023-02-04T16:05:03;94949.59;;;2.72;79.85
7754;BME280;3921;42.266;23.122;2023-02-04T16:07:31;95236.53;;;4.76;74.12
7754;BME280;3921;42.266;23.122;2023-02-04T16:09:59;95395.22;;;5.53;72.60
7754;BME280;3921;42.266;23.122;2023-02-04T16:12:31;95356.72;;;5.29;72.88
7754;BME280;3921;42.266;23.122;2023-02-04T16:15:02;94760.41;;;1.69;71.28
7754;BME280;3921;42.266;23.122;2023-02-04T16:17:29;95019.81;;;3.21;70.10
7754;BME280;3921;42.266;23.122;2023-02-04T16:19:56;95099.00;;;3.59;71.12
7754;BME280;3921;42.266;23.122;2023-02-04T16:22:23;95056.00;;;3.07;71.82
7754;BME280;3921;42.266;23.122;2023-02-04T16:24:50;94902.75;;;2.36;72.11
7754;BME280;3921;42.266;23.122;2023-02-04T16:27:18;95037.06;;;3.12;72.75
7754;BME280;3921;42.266;23.122;2023-02-04T16:29:47;95183.28;;;4.01;72.07
7754;BME280;3921;42.266;23.122;2023-02-04T16:32:14;95465.06;;;5.57;72.22
7754;BME280;3921;42.266;23.122;2023-02-04T16:34:41;95201.41;;;3.94;72.40
7754;BME280;3921;42.266;23.122;2023-02-04T16:37:10;95381.41;;;5.13;72.75
7754;BME280;3921;42.266;23.122;2023-02-04T16:39:38;95420.88;;;5.46;71.65
7754;BME280;3921;42.266;23.122;2023-02-04T16:42:11;95317.53;;;4.54;71.27
7754;BME280;3921;42.266;23.122;2023-02-04T16:44:40;95228.91;;;4.03;71.48
7754;BME280;3921;42.266;23.122;2023-02-04T16:47:10;95414.47;;;5.04;71.78
7754;BME280;3921;42.266;23.122;2023-02-04T16:49:40;95361.25;;;4.96;69.92
7754;BME280;3921;42.266;23.122;2023-02-04T16:52:09;95481.69;;;5.60;68.10
7754;BME280;3921;42.266;23.122;2023-02-04T16:54:37;95346.00;;;4.73;68.55
7754;BME280;3921;42.266;23.122;2023-02-04T16:57:04;95468.94;;;5.39;67.78
7754;BME280;3921;42.266;23.122;2023-02-04T16:59:31;95227.41;;;3.61;67.18
7754;BME280;3921;42.266;23.122;2023-02-04T17:02:00;95057.81;;;2.67;66.30
7754;BME280;3921;42.266;23.122;2023-02-04T17:04:30;95494.47;;;5.24;67.35
7754;BME280;3921;42.266;23.122;2023-02-04T17:06:57;95064.88;;;2.46;67.59
7754;BME280;3921;42.266;23.122;2023-02-04T17:09:25;95144.66;;;3.14;68.17
7754;BME280;3921;42.266;23.122;2023-02-04T17:11:52;95157.66;;;3.01;68.42
7754;BME280;3921;42.266;23.122;2023-02-04T17:14:19;95473.59;;;5.16;67.93
7754;BME280;3921;42.266;23.122;2023-02-04T17:16:47;95080.97;;;2.66;68.43
7754;BME280;3921;42.266;23.122;2023-02-04T17:19:16;95056.91;;;2.62;68.30
7754;BME280;3921;42.266;23.122;2023-02-04T17:21:46;95415.59;;;4.65;68.77
7754;BME280;3921;42.266;23.122;2023-02-04T17:24:14;95122.31;;;2.67;69.25
7754;BME280;3921;42.266;23.122;2023-02-04T17:26:41;95382.81;;;4.39;69.47
7754;BME280;3921;42.266;23.122;2023-02-04T17:29:09;95222.81;;;3.34;70.15
7754;BME280;3921;42.266;23.122;2023-02-04T17:31:37;95381.97;;;4.39;68.74
7754;BME280;3921;42.266;23.122;2023-02-04T17:34:04;94977.06;;;1.88;69.61
7754;BME280;3921;42.266;23.122;2023-02-04T17:36:31;95109.88;;;2.64;66.68
7754;BME280;3921;42.266;23.122;2023-02-04T17:39:02;95467.59;;;5.04;67.44